sensor_id;sensor_type;location;lat;lon;timestamp;P1;durP1;ratioP1;P2;durP2;ratioP2
51124;SDS011;37163;55.556;39.108;2023-03-01T00:00:02;2.78;;;0.50;;
51124;SDS011;37163;55.556;39.108;2023-03-01T00:02:37;1.48;;;0.30;;
51124;SDS011;37163;55.556;39.108;2023-03-01T00:05:03;0.95;;;0.63;;
51124;SDS011;37163;55.556;39.108;2023-03-01T00:07:30;1.55;;;0.52;;
51124;SDS011;37163;55.556;39.108;2023-03-01T00:09:56;1.90;;;0.60;;
51124;SDS011;37163;55.556;39.108;2023-03-01T00:12:23;4.72;;;0.50;;
51124;SDS011;37163;55.556;39.108;2023-03-01T00:14:49;0.93;;;0.30;;
51124;SDS011;37163;55.556;39.108;2023-03-01T00:17:15;1.17;;;0.65;;
51124;SDS011;37163;55.556;39.108;2023-03-01T00:19:42;6.97;;;1.40;;
51124;SDS011;37163;55.556;39.108;2023-03-01T00:22:08;1.83;;;0.47;;
51124;SDS011;37163;55.556;39.108;2023-03-01T00:24:35;1.42;;;0.50;;
51124;SDS011;37163;55.556;39.108;2023-03-01T00:27:01;2.40;;;0.45;;
51124;SDS011;37163;55.556;39.108;2023-03-01T00:29:27;4.85;;;0.57;;
51124;SDS011;37163;55.556;39.108;2023-03-01T00:31:54;3.20;;;0.57;;
51124;SDS011;37163;55.556;39.108;2023-03-01T00:34:20;1.05;;;0.68;;
51124;SDS011;37163;55.556;39.108;2023-03-01T00:36:47;1.70;;;0.50;;
51124;SDS011;37163;55.556;39.108;2023-03-01T00:39:14;2.63;;;0.88;;
51124;SDS011;37163;55.556;39.108;2023-03-01T00:41:41;2.28;;;0.50;;
51124;SDS011;37163;55.556;39.108;2023-03-01T00:44:08;5.00;;;0.95;;
51124;SDS011;37163;55.556;39.108;2023-03-01T00:46:35;1.30;;;0.47;;
51124;SDS011;37163;55.556;39.108;2023-03-01T00:49:01;11.07;;;1.17;;
51124;SDS011;37163;55.556;39.108;2023-03-01T00:51:30;2.33;;;0.68;;
51124;SDS011;37163;55.556;39.108;2023-03-01T00:53:59;1.95;;;1.13;;
51124;SDS011;37163;55.556;39.108;2023-03-01T00:56:27;2.10;;;1.13;;
51124;SDS011;37163;55.556;39.108;2023-03-01T00:58:54;2.85;;;1.08;;
51124;SDS011;37163;55.556;39.108;2023-03-01T01:01:21;3.67;;;1.00;;
51124;SDS011;37163;55.556;39.108;2023-03-01T01:03:50;1.42;;;0.77;;
51124;SDS011;37163;55.556;39.108;2023-03-01T01:06:22;2.17;;;0.90;;
51124;SDS011;37163;55.556;39.108;2023-03-01T01:08:50;2.22;;;0.82;;
51124;SDS011;37163;55.556;39.108;2023-03-01T01:11:17;3.83;;;1.08;;
51124;SDS011;37163;55.556;39.108;2023-03-01T01:13:44;1.95;;;0.73;;
51124;SDS011;37163;55.556;39.108;2023-03-01T01:16:11;3.92;;;1.10;;
51124;SDS011;37163;55.556;39.108;2023-03-01T01:18:38;5.20;;;1.17;;
51124;SDS011;37163;55.556;39.108;2023-03-01T01:21:05;1.58;;;0.82;;
51124;SDS011;37163;55.556;39.108;2023-03-01T01:23:33;5.95;;;1.60;;
51124;SDS011;37163;55.556;39.108;2023-03-01T01:26:03;3.45;;;1.23;;
51124;SDS011;37163;55.556;39.108;2023-03-01T01:28:31;3.75;;;1.30;;
51124;SDS011;37163;55.556;39.108;2023-03-01T01:30:57;3.00;;;1.00;;
51124;SDS011;37163;55.556;39.108;2023-03-01T01:33:24;3.85;;;1.17;;
51124;SDS011;37163;55.556;39.108;2023-03-01T01:35:50;2.85;;;1.17;;
51124;SDS011;37163;55.556;39.108;2023-03-01T01:38:17;3.85;;;1.00;;
51124;SDS011;37163;55.556;39.108;2023-03-01T01:40:44;1.38;;;0.80;;
51124;SDS011;37163;55.556;39.108;2023-03-01T01:43:21;2.72;;;1.17;;
51124;SDS011;37163;55.556;39.108;2023-03-01T01:45:48;5.18;;;1.50;;
51124;SDS011;37163;55.556;39.108;2023-03-01T01:48:19;1.88;;;0.82;;
51124;SDS011;37163;55.556;39.108;2023-03-01T01:50:50;2.08;;;0.73;;
51124;SDS011;37163;55.556;39.108;2023-03-01T01:53:20;3.00;;;1.23;;
51124;SDS011;37163;55.556;39.108;2023-03-01T01:55:49;3.85;;;1.27;;
51124;SDS011;37163;55.556;39.108;2023-03-01T01:58:22;5.22;;;1.85;;
51124;SDS011;37163;55.556;39.108;2023-03-01T02:00:50;3.85;;;1.13;;
51124;SDS011;37163;55.556;39.108;2023-03-01T02:03:18;1.42;;;0.60;;
51124;SDS011;37163;55.556;39.108;2023-03-01T02:05:52;2.53;;;0.90;;
51124;SDS011;37163;55.556;39.108;2023-03-01T02:08:28;4.15;;;0.98;;
51124;SDS011;37163;55.556;39.108;2023-03-01T02:10:58;1.55;;;0.80;;
51124;SDS011;37163;55.556;39.108;2023-03-01T02:13:26;4.93;;;1.20;;
51124;SDS011;37163;55.556;39.108;2023-03-01T02:15:53;9.27;;;1.75;;
51124;SDS011;37163;55.556;39.108;2023-03-01T02:18:21;1.25;;;0.90;;
51124;SDS011;37163;55.556;39.108;2023-03-01T02:23:34;1.40;;;0.70;;
51124;SDS011;37163;55.556;39.108;2023-03-01T02:26:15;3.40;;;0.90;;
51124;SDS011;37163;55.556;39.108;2023-03-01T02:28:45;1.88;;;0.98;;
51124;SDS011;37163;55.556;39.108;2023-03-01T02:31:14;1.27;;;0.70;;
51124;SDS011;37163;55.556;39.108;2023-03-01T02:34:01;4.22;;;0.77;;
51124;SDS011;37163;55.556;39.108;2023-03-01T02:36:31;3.25;;;0.93;;
51124;SDS011;37163;55.556;39.108;2023-03-01T02:39:07;1.40;;;0.70;;
51124;SDS011;37163;55.556;39.108;2023-03-01T02:41:41;2.05;;;0.95;;
51124;SDS011;37163;55.556;39.108;2023-03-01T02:44:09;7.00;;;1.33;;
51124;SDS011;37163;55.556;39.108;2023-03-01T02:46:41;3.42;;;1.05;;
51124;SDS011;37163;55.556;39.108;2023-03-01T02:49:18;2.95;;;1.20;;
51124;SDS011;37163;55.556;39.108;2023-03-01T02:52:42;5.53;;;1.83;;
51124;SDS011;37163;55.556;39.108;2023-03-01T02:57:53;3.67;;;2.08;;
51124;SDS011;37163;55.556;39.108;2023-03-01T03:00:23;4.90;;;1.88;;
51124;SDS011;37163;55.556;39.108;2023-03-01T03:02:53;1.77;;;1.13;;
51124;SDS011;37163;55.556;39.108;2023-03-01T03:05:24;3.22;;;1.48;;
51124;SDS011;37163;55.556;39.108;2023-03-01T03:07:57;3.15;;;1.00;;
51124;SDS011;37163;55.556;39.108;2023-03-01T03:10:26;4.22;;;1.23;;
51124;SDS011;37163;55.556;39.108;2023-03-01T03:12:59;2.33;;;0.88;;
51124;SDS011;37163;55.556;39.108;2023-03-01T03:15:30;2.15;;;1.23;;
51124;SDS011;37163;55.556;39.108;2023-03-01T03:17:57;1.02;;;0.68;;
51124;SDS011;37163;55.556;39.108;2023-03-01T03:20:25;1.10;;;0.75;;
51124;SDS011;37163;55.556;39.108;2023-03-01T03:22:53;2.63;;;0.52;;
51124;SDS011;37163;55.556;39.108;2023-03-01T03:25:20;0.98;;;0.55;;
51124;SDS011;37163;55.556;39.108;2023-03-01T03:27:48;2.40;;;0.77;;
51124;SDS011;37163;55.556;39.108;2023-03-01T03:30:23;3.88;;;1.17;;
51124;SDS011;37163;55.556;39.108;2023-03-01T03:33:11;3.90;;;0.82;;
51124;SDS011;37163;55.556;39.108;2023-03-01T03:35:39;1.35;;;0.55;;
51124;SDS011;37163;55.556;39.108;2023-03-01T03:38:08;2.88;;;0.75;;
51124;SDS011;37163;55.556;39.108;2023-03-01T03:40:42;2.20;;;0.88;;
51124;SDS011;37163;55.556;39.108;2023-03-01T03:43:17;1.63;;;0.73;;
51124;SDS011;37163;55.556;39.108;2023-03-01T03:45:45;2.88;;;0.88;;
51124;SDS011;37163;55.556;39.108;2023-03-01T03:48:13;1.70;;;0.50;;
51124;SDS011;37163;55.556;39.108;2023-03-01T03:50:40;1.58;;;0.90;;
51124;SDS011;37163;55.556;39.108;2023-03-01T03:53:08;0.80;;;0.60;;
51124;SDS011;37163;55.556;39.108;2023-03-01T03:55:35;1.38;;;0.82;;
51124;SDS011;37163;55.556;39.108;2023-03-01T03:58:05;3.22;;;0.90;;
51124;SDS011;37163;55.556;39.108;2023-03-01T04:00:34;2.90;;;0.80;;
51124;SDS011;37163;55.556;39.108;2023-03-01T04:03:02;2.72;;;0.45;;
51124;SDS011;37163;55.556;39.108;2023-03-01T04:05:29;1.10;;;0.52;;
51124;SDS011;37163;55.556;39.108;2023-03-01T04:07:56;2.22;;;0.75;;
51124;SDS011;37163;55.556;39.108;2023-03-01T04:13:06;4.00;;;1.20;;
51124;SDS011;37163;55.556;39.108;2023-03-01T04:15:34;3.50;;;1.00;;
51124;SDS011;37163;55.556;39.108;2023-03-01T04:18:01;3.78;;;1.10;;
51124;SDS011;37163;55.556;39.108;2023-03-01T04:20:28;5.32;;;1.25;;
51124;SDS011;37163;55.556;39.108;2023-03-01T04:23:09;0.70;;;0.50;;
51124;SDS011;37163;55.556;39.108;2023-03-01T04:25:52;1.85;;;1.30;;
51124;SDS011;37163;55.556;39.108;2023-03-01T04:28:20;3.38;;;1.05;;
51124;SDS011;37163;55.556;39.108;2023-03-01T04:30:53;2.60;;;1.55;;
51124;SDS011;37163;55.556;39.108;2023-03-01T04:33:21;10.23;;;3.08;;
51124;SDS011;37163;55.556;39.108;2023-03-01T04:35:47;5.60;;;2.05;;
51124;SDS011;37163;55.556;39.108;2023-03-01T04:38:17;10.52;;;3.15;;
51124;SDS011;37163;55.556;39.108;2023-03-01T04:40:44;6.13;;;2.22;;
51124;SDS011;37163;55.556;39.108;2023-03-01T04:43:11;9.07;;;3.35;;
51124;SDS011;37163;55.556;39.108;2023-03-01T04:45:41;12.18;;;3.83;;
51124;SDS011;37163;55.556;39.108;2023-03-01T04:48:07;6.10;;;2.72;;
51124;SDS011;37163;55.556;39.108;2023-03-01T04:50:34;13.35;;;5.78;;
51124;SDS011;37163;55.556;39.108;2023-03-01T04:53:00;14.45;;;4.93;;
51124;SDS011;37163;55.556;39.108;2023-03-01T04:55:27;15.80;;;4.95;;
51124;SDS011;37163;55.556;39.108;2023-03-01T04:57:54;15.80;;;4.57;;
51124;SDS011;37163;55.556;39.108;2023-03-01T05:00:21;9.55;;;4.10;;
51124;SDS011;37163;55.556;39.108;2023-03-01T05:02:55;15.15;;;5.28;;
51124;SDS011;37163;55.556;39.108;2023-03-01T05:05:24;6.82;;;2.55;;
51124;SDS011;37163;55.556;39.108;2023-03-01T05:07:53;6.78;;;3.45;;
51124;SDS011;37163;55.556;39.108;2023-03-01T05:10:24;9.25;;;4.60;;
51124;SDS011;37163;55.556;39.108;2023-03-01T05:12:51;8.73;;;2.08;;
51124;SDS011;37163;55.556;39.108;2023-03-01T05:15:18;5.10;;;2.17;;
51124;SDS011;37163;55.556;39.108;2023-03-01T05:17:48;14.00;;;3.13;;
51124;SDS011;37163;55.556;39.108;2023-03-01T05:20:14;9.38;;;3.35;;
51124;SDS011;37163;55.556;39.108;2023-03-01T05:22:41;7.35;;;1.27;;
51124;SDS011;37163;55.556;39.108;2023-03-01T05:25:07;5.20;;;2.17;;
51124;SDS011;37163;55.556;39.108;2023-03-01T05:27:34;4.05;;;1.25;;
51124;SDS011;37163;55.556;39.108;2023-03-01T05:30:01;1.85;;;0.57;;
51124;SDS011;37163;55.556;39.108;2023-03-01T05:32:40;4.30;;;1.23;;
51124;SDS011;37163;55.556;39.108;2023-03-01T05:35:14;2.38;;;0.65;;
51124;SDS011;37163;55.556;39.108;2023-03-01T05:37:47;1.95;;;0.75;;
51124;SDS011;37163;55.556;39.108;2023-03-01T05:40:15;0.82;;;0.40;;
51124;SDS011;37163;55.556;39.108;2023-03-01T05:42:45;0.55;;;0.55;;
51124;SDS011;37163;55.556;39.108;2023-03-01T05:45:13;4.25;;;1.27;;
51124;SDS011;37163;55.556;39.108;2023-03-01T05:47:40;0.70;;;0.47;;
51124;SDS011;37163;55.556;39.108;2023-03-01T05:52:48;0.93;;;0.43;;
51124;SDS011;37163;55.556;39.108;2023-03-01T05:55:17;0.68;;;0.40;;
51124;SDS011;37163;55.556;39.108;2023-03-01T05:57:45;1.27;;;0.40;;
51124;SDS011;37163;55.556;39.108;2023-03-01T06:00:12;0.88;;;0.50;;
51124;SDS011;37163;55.556;39.108;2023-03-01T06:02:40;3.05;;;0.70;;
51124;SDS011;37163;55.556;39.108;2023-03-01T06:05:07;0.93;;;0.40;;
51124;SDS011;37163;55.556;39.108;2023-03-01T06:07:34;1.23;;;0.68;;
51124;SDS011;37163;55.556;39.108;2023-03-01T06:10:01;1.25;;;0.60;;
51124;SDS011;37163;55.556;39.108;2023-03-01T06:12:34;1.38;;;0.52;;
51124;SDS011;37163;55.556;39.108;2023-03-01T06:15:02;4.90;;;1.15;;
51124;SDS011;37163;55.556;39.108;2023-03-01T06:17:31;2.42;;;0.50;;
51124;SDS011;37163;55.556;39.108;2023-03-01T06:20:01;2.50;;;0.95;;
51124;SDS011;37163;55.556;39.108;2023-03-01T06:22:28;0.57;;;0.40;;
51124;SDS011;37163;55.556;39.108;2023-03-01T06:24:55;1.50;;;0.60;;
51124;SDS011;37163;55.556;39.108;2023-03-01T06:27:21;1.20;;;0.60;;
51124;SDS011;37163;55.556;39.108;2023-03-01T06:29:47;2.17;;;0.60;;
51124;SDS011;37163;55.556;39.108;2023-03-01T06:32:14;1.08;;;0.50;;
51124;SDS011;37163;55.556;39.108;2023-03-01T06:34:41;3.10;;;0.60;;
51124;SDS011;37163;55.556;39.108;2023-03-01T06:37:07;2.10;;;0.68;;
51124;SDS011;37163;55.556;39.108;2023-03-01T06:39:34;1.65;;;0.50;;
51124;SDS011;37163;55.556;39.108;2023-03-01T06:42:01;1.65;;;0.70;;
51124;SDS011;37163;55.556;39.108;2023-03-01T06:44:27;1.13;;;0.70;;
51124;SDS011;37163;55.556;39.108;2023-03-01T06:46:53;1.92;;;0.60;;
51124;SDS011;37163;55.556;39.108;2023-03-01T06:49:20;1.25;;;0.60;;
51124;SDS011;37163;55.556;39.108;2023-03-01T06:51:46;1.20;;;0.47;;
51124;SDS011;37163;55.556;39.108;2023-03-01T06:54:13;2.67;;;0.80;;
51124;SDS011;37163;55.556;39.108;2023-03-01T06:56:39;2.35;;;0.68;;
51124;SDS011;37163;55.556;39.108;2023-03-01T06:59:06;3.47;;;0.75;;
51124;SDS011;37163;55.556;39.108;2023-03-01T07:01:32;1.13;;;0.40;;
51124;SDS011;37163;55.556;39.108;2023-03-01T07:03:58;4.18;;;1.00;;
51124;SDS011;37163;55.556;39.108;2023-03-01T07:06:24;4.60;;;0.68;;
51124;SDS011;37163;55.556;39.108;2023-03-01T07:08:51;2.50;;;0.60;;
51124;SDS011;37163;55.556;39.108;2023-03-01T07:11:17;0.77;;;0.77;;
51124;SDS011;37163;55.556;39.108;2023-03-01T07:13:43;0.60;;;0.40;;
51124;SDS011;37163;55.556;39.108;2023-03-01T07:16:09;1.48;;;0.70;;
51124;SDS011;37163;55.556;39.108;2023-03-01T07:18:36;2.95;;;0.60;;
51124;SDS011;37163;55.556;39.108;2023-03-01T07:21:06;4.85;;;1.13;;
51124;SDS011;37163;55.556;39.108;2023-03-01T07:23:34;1.85;;;0.65;;
51124;SDS011;37163;55.556;39.108;2023-03-01T07:26:00;1.75;;;0.50;;
51124;SDS011;37163;55.556;39.108;2023-03-01T07:28:26;1.35;;;0.70;;
51124;SDS011;37163;55.556;39.108;2023-03-01T07:30:53;2.47;;;0.73;;
51124;SDS011;37163;55.556;39.108;2023-03-01T07:33:20;2.13;;;0.80;;
51124;SDS011;37163;55.556;39.108;2023-03-01T07:35:46;0.85;;;0.38;;
51124;SDS011;37163;55.556;39.108;2023-03-01T07:38:13;6.60;;;0.90;;
51124;SDS011;37163;55.556;39.108;2023-03-01T07:40:39;1.80;;;0.65;;
51124;SDS011;37163;55.556;39.108;2023-03-01T07:43:05;1.75;;;0.95;;
51124;SDS011;37163;55.556;39.108;2023-03-01T07:45:31;1.85;;;0.60;;
51124;SDS011;37163;55.556;39.108;2023-03-01T07:47:57;3.05;;;0.73;;
51124;SDS011;37163;55.556;39.108;2023-03-01T07:50:24;3.33;;;0.85;;
51124;SDS011;37163;55.556;39.108;2023-03-01T07:52:50;2.30;;;0.68;;
51124;SDS011;37163;55.556;39.108;2023-03-01T07:55:16;3.65;;;1.00;;
51124;SDS011;37163;55.556;39.108;2023-03-01T07:57:43;1.13;;;0.52;;
51124;SDS011;37163;55.556;39.108;2023-03-01T08:00:10;2.22;;;0.70;;
51124;SDS011;37163;55.556;39.108;2023-03-01T08:02:40;1.90;;;0.77;;
51124;SDS011;37163;55.556;39.108;2023-03-01T08:05:08;1.58;;;0.60;;
51124;SDS011;37163;55.556;39.108;2023-03-01T08:07:35;5.93;;;1.00;;
51124;SDS011;37163;55.556;39.108;2023-03-01T08:10:02;2.45;;;0.68;;
51124;SDS011;37163;55.556;39.108;2023-03-01T08:12:28;1.38;;;0.65;;
51124;SDS011;37163;55.556;39.108;2023-03-01T08:14:55;4.82;;;0.85;;
51124;SDS011;37163;55.556;39.108;2023-03-01T08:17:22;3.90;;;0.95;;
51124;SDS011;37163;55.556;39.108;2023-03-01T08:19:48;1.15;;;0.50;;
51124;SDS011;37163;55.556;39.108;2023-03-01T08:22:15;3.05;;;0.77;;
51124;SDS011;37163;55.556;39.108;2023-03-01T08:24:41;5.35;;;0.70;;
51124;SDS011;37163;55.556;39.108;2023-03-01T08:27:07;1.45;;;0.60;;
51124;SDS011;37163;55.556;39.108;2023-03-01T08:29:34;1.92;;;0.45;;
51124;SDS011;37163;55.556;39.108;2023-03-01T08:32:00;3.22;;;1.10;;
51124;SDS011;37163;55.556;39.108;2023-03-01T08:34:27;2.03;;;0.60;;
51124;SDS011;37163;55.556;39.108;2023-03-01T08:36:53;2.83;;;0.63;;
51124;SDS011;37163;55.556;39.108;2023-03-01T08:39:21;5.57;;;0.70;;
51124;SDS011;37163;55.556;39.108;2023-03-01T08:41:47;1.73;;;0.90;;
51124;SDS011;37163;55.556;39.108;2023-03-01T08:44:14;3.83;;;0.95;;
51124;SDS011;37163;55.556;39.108;2023-03-01T08:46:42;4.03;;;0.85;;
51124;SDS011;37163;55.556;39.108;2023-03-01T08:49:13;3.15;;;0.75;;
51124;SDS011;37163;55.556;39.108;2023-03-01T08:51:41;2.60;;;1.00;;
51124;SDS011;37163;55.556;39.108;2023-03-01T08:54:11;2.53;;;0.70;;
51124;SDS011;37163;55.556;39.108;2023-03-01T08:56:40;1.60;;;1.00;;
51124;SDS011;37163;55.556;39.108;2023-03-01T08:59:07;2.85;;;1.05;;
51124;SDS011;37163;55.556;39.108;2023-03-01T09:01:34;1.38;;;0.60;;
51124;SDS011;37163;55.556;39.108;2023-03-01T09:04:02;3.45;;;0.80;;
51124;SDS011;37163;55.556;39.108;2023-03-01T09:06:33;2.25;;;0.63;;
51124;SDS011;37163;55.556;39.108;2023-03-01T09:09:00;2.03;;;0.75;;
51124;SDS011;37163;55.556;39.108;2023-03-01T09:11:27;3.97;;;0.93;;
51124;SDS011;37163;55.556;39.108;2023-03-01T09:13:53;1.13;;;0.63;;
51124;SDS011;37163;55.556;39.108;2023-03-01T09:16:21;3.17;;;0.82;;
51124;SDS011;37163;55.556;39.108;2023-03-01T09:18:49;1.83;;;0.90;;
51124;SDS011;37163;55.556;39.108;2023-03-01T09:21:17;1.85;;;1.27;;
51124;SDS011;37163;55.556;39.108;2023-03-01T09:23:47;2.72;;;0.88;;
51124;SDS011;37163;55.556;39.108;2023-03-01T09:26:17;4.22;;;0.75;;
51124;SDS011;37163;55.556;39.108;2023-03-01T09:28:52;3.72;;;0.85;;
51124;SDS011;37163;55.556;39.108;2023-03-01T09:31:20;2.65;;;0.77;;
51124;SDS011;37163;55.556;39.108;2023-03-01T09:33:48;1.77;;;0.73;;
51124;SDS011;37163;55.556;39.108;2023-03-01T09:36:16;4.95;;;1.05;;
51124;SDS011;37163;55.556;39.108;2023-03-01T09:38:45;2.35;;;0.55;;
51124;SDS011;37163;55.556;39.108;2023-03-01T09:41:33;1.95;;;0.80;;
51124;SDS011;37163;55.556;39.108;2023-03-01T09:46:57;4.28;;;1.08;;
51124;SDS011;37163;55.556;39.108;2023-03-01T09:49:28;0.73;;;0.52;;
51124;SDS011;37163;55.556;39.108;2023-03-01T09:52:01;1.73;;;0.70;;
51124;SDS011;37163;55.556;39.108;2023-03-01T09:54:45;2.15;;;0.98;;
51124;SDS011;37163;55.556;39.108;2023-03-01T10:02:52;3.20;;;1.00;;
51124;SDS011;37163;55.556;39.108;2023-03-01T10:07:54;5.45;;;1.63;;
51124;SDS011;37163;55.556;39.108;2023-03-01T10:10:26;3.95;;;1.08;;
51124;SDS011;37163;55.556;39.108;2023-03-01T10:12:55;7.13;;;0.77;;
51124;SDS011;37163;55.556;39.108;2023-03-01T10:15:24;1.58;;;0.90;;
51124;SDS011;37163;55.556;39.108;2023-03-01T10:17:57;2.70;;;0.93;;
51124;SDS011;37163;55.556;39.108;2023-03-01T10:23:13;2.55;;;0.68;;
51124;SDS011;37163;55.556;39.108;2023-03-01T10:28:23;2.65;;;1.02;;
51124;SDS011;37163;55.556;39.108;2023-03-01T10:31:01;5.28;;;1.25;;
51124;SDS011;37163;55.556;39.108;2023-03-01T10:33:32;0.88;;;0.60;;
51124;SDS011;37163;55.556;39.108;2023-03-01T10:36:00;3.50;;;0.93;;
51124;SDS011;37163;55.556;39.108;2023-03-01T10:38:26;4.45;;;1.00;;
51124;SDS011;37163;55.556;39.108;2023-03-01T10:40:58;1.75;;;0.88;;
51124;SDS011;37163;55.556;39.108;2023-03-01T10:43:30;5.43;;;1.27;;
51124;SDS011;37163;55.556;39.108;2023-03-01T10:46:23;2.25;;;0.80;;
51124;SDS011;37163;55.556;39.108;2023-03-01T10:49:36;2.35;;;0.90;;
51124;SDS011;37163;55.556;39.108;2023-03-01T10:51:48;3.60;;;1.10;;
51124;SDS011;37163;55.556;39.108;2023-03-01T10:54:20;2.67;;;0.73;;
51124;SDS011;37163;55.556;39.108;2023-03-01T10:56:52;3.17;;;0.63;;
51124;SDS011;37163;55.556;39.108;2023-03-01T11:00:00;2.50;;;0.80;;
51124;SDS011;37163;55.556;39.108;2023-03-01T11:02:28;6.43;;;1.20;;
51124;SDS011;37163;55.556;39.108;2023-03-01T11:04:59;1.55;;;0.82;;
51124;SDS011;37163;55.556;39.108;2023-03-01T11:07:29;4.05;;;0.90;;
51124;SDS011;37163;55.556;39.108;2023-03-01T11:09:55;1.08;;;0.77;;
51124;SDS011;37163;55.556;39.108;2023-03-01T11:12:22;1.60;;;0.70;;
51124;SDS011;37163;55.556;39.108;2023-03-01T11:14:53;2.38;;;0.65;;
51124;SDS011;37163;55.556;39.108;2023-03-01T11:17:30;3.40;;;0.70;;
51124;SDS011;37163;55.556;39.108;2023-03-01T11:22:42;1.35;;;0.65;;
51124;SDS011;37163;55.556;39.108;2023-03-01T11:25:26;1.83;;;0.80;;
51124;SDS011;37163;55.556;39.108;2023-03-01T11:27:54;1.63;;;0.73;;
51124;SDS011;37163;55.556;39.108;2023-03-01T11:30:28;1.35;;;0.73;;
51124;SDS011;37163;55.556;39.108;2023-03-01T11:33:01;3.35;;;0.70;;
51124;SDS011;37163;55.556;39.108;2023-03-01T11:35:37;1.80;;;0.70;;
51124;SDS011;37163;55.556;39.108;2023-03-01T11:40:44;1.67;;;0.68;;
51124;SDS011;37163;55.556;39.108;2023-03-01T11:51:20;1.48;;;0.95;;
51124;SDS011;37163;55.556;39.108;2023-03-01T12:00:02;0.82;;;0.50;;
51124;SDS011;37163;55.556;39.108;2023-03-01T12:05:59;1.35;;;0.70;;
51124;SDS011;37163;55.556;39.108;2023-03-01T12:08:33;2.05;;;0.90;;
51124;SDS011;37163;55.556;39.108;2023-03-01T12:11:35;2.10;;;0.45;;
51124;SDS011;37163;55.556;39.108;2023-03-01T12:27:50;4.75;;;0.77;;
51124;SDS011;37163;55.556;39.108;2023-03-01T12:39:21;2.63;;;0.60;;
51124;SDS011;37163;55.556;39.108;2023-03-01T12:42:04;1.20;;;0.43;;
51124;SDS011;37163;55.556;39.108;2023-03-01T12:45:02;1.17;;;0.70;;
51124;SDS011;37163;55.556;39.108;2023-03-01T12:50:25;1.17;;;0.60;;
51124;SDS011;37163;55.556;39.108;2023-03-01T12:52:57;0.90;;;0.40;;
51124;SDS011;37163;55.556;39.108;2023-03-01T13:00:54;0.60;;;0.40;;
51124;SDS011;37163;55.556;39.108;2023-03-01T13:06:29;1.88;;;0.90;;
51124;SDS011;37163;55.556;39.108;2023-03-01T13:11:46;1.95;;;0.80;;
51124;SDS011;37163;55.556;39.108;2023-03-01T13:16:54;0.68;;;0.60;;
51124;SDS011;37163;55.556;39.108;2023-03-01T13:19:21;2.50;;;0.90;;
51124;SDS011;37163;55.556;39.108;2023-03-01T13:21:49;2.08;;;0.60;;
51124;SDS011;37163;55.556;39.108;2023-03-01T13:24:27;2.22;;;0.57;;
51124;SDS011;37163;55.556;39.108;2023-03-01T13:29:55;1.80;;;0.77;;
51124;SDS011;37163;55.556;39.108;2023-03-01T13:32:32;1.00;;;0.63;;
51124;SDS011;37163;55.556;39.108;2023-03-01T13:37:45;2.72;;;0.90;;
51124;SDS011;37163;55.556;39.108;2023-03-01T13:48:26;2.63;;;0.45;;
51124;SDS011;37163;55.556;39.108;2023-03-01T13:50:59;1.23;;;0.40;;
51124;SDS011;37163;55.556;39.108;2023-03-01T13:53:32;2.25;;;1.00;;
51124;SDS011;37163;55.556;39.108;2023-03-01T13:56:02;2.10;;;0.65;;
51124;SDS011;37163;55.556;39.108;2023-03-01T13:58:33;2.10;;;0.57;;
51124;SDS011;37163;55.556;39.108;2023-03-01T14:01:33;1.75;;;0.50;;
51124;SDS011;37163;55.556;39.108;2023-03-01T14:04:02;1.42;;;0.77;;
51124;SDS011;37163;55.556;39.108;2023-03-01T14:06:30;1.90;;;0.88;;
51124;SDS011;37163;55.556;39.108;2023-03-01T14:09:02;2.38;;;0.90;;
51124;SDS011;37163;55.556;39.108;2023-03-01T14:11:54;1.05;;;0.73;;
51124;SDS011;37163;55.556;39.108;2023-03-01T14:14:32;3.00;;;1.20;;
51124;SDS011;37163;55.556;39.108;2023-03-01T14:17:31;1.77;;;0.77;;
51124;SDS011;37163;55.556;39.108;2023-03-01T14:22:52;3.05;;;0.98;;
51124;SDS011;37163;55.556;39.108;2023-03-01T14:27:59;1.35;;;0.55;;
51124;SDS011;37163;55.556;39.108;2023-03-01T14:30:49;4.43;;;1.05;;
51124;SDS011;37163;55.556;39.108;2023-03-01T14:36:08;2.47;;;1.02;;
51124;SDS011;37163;55.556;39.108;2023-03-01T14:41:07;3.65;;;1.15;;
51124;SDS011;37163;55.556;39.108;2023-03-01T14:43:43;1.55;;;0.85;;
51124;SDS011;37163;55.556;39.108;2023-03-01T14:46:21;1.60;;;0.55;;
51124;SDS011;37163;55.556;39.108;2023-03-01T14:48:51;3.10;;;1.15;;
51124;SDS011;37163;55.556;39.108;2023-03-01T14:51:18;3.45;;;1.20;;
51124;SDS011;37163;55.556;39.108;2023-03-01T14:53:45;2.90;;;0.60;;
51124;SDS011;37163;55.556;39.108;2023-03-01T14:56:12;1.58;;;0.88;;
51124;SDS011;37163;55.556;39.108;2023-03-01T14:58:40;2.22;;;0.77;;
51124;SDS011;37163;55.556;39.108;2023-03-01T15:01:06;2.88;;;0.88;;
51124;SDS011;37163;55.556;39.108;2023-03-01T15:03:38;1.50;;;0.60;;
51124;SDS011;37163;55.556;39.108;2023-03-01T15:08:54;0.63;;;0.50;;
51124;SDS011;37163;55.556;39.108;2023-03-01T15:11:23;3.00;;;0.63;;
51124;SDS011;37163;55.556;39.108;2023-03-01T15:13:53;0.82;;;0.50;;
51124;SDS011;37163;55.556;39.108;2023-03-01T15:16:24;1.70;;;0.70;;
51124;SDS011;37163;55.556;39.108;2023-03-01T15:19:02;1.48;;;0.50;;
51124;SDS011;37163;55.556;39.108;2023-03-01T15:21:34;1.50;;;0.93;;
51124;SDS011;37163;55.556;39.108;2023-03-01T15:27:13;2.80;;;0.70;;
51124;SDS011;37163;55.556;39.108;2023-03-01T15:29:39;1.00;;;0.52;;
51124;SDS011;37163;55.556;39.108;2023-03-01T15:32:21;2.42;;;1.30;;
51124;SDS011;37163;55.556;39.108;2023-03-01T15:34:54;2.22;;;0.70;;
51124;SDS011;37163;55.556;39.108;2023-03-01T15:37:40;0.57;;;0.50;;
51124;SDS011;37163;55.556;39.108;2023-03-01T15:40:24;0.65;;;0.47;;
51124;SDS011;37163;55.556;39.108;2023-03-01T15:43:06;1.67;;;0.50;;
51124;SDS011;37163;55.556;39.108;2023-03-01T15:45:34;1.60;;;0.63;;
51124;SDS011;37163;55.556;39.108;2023-03-01T15:48:13;2.50;;;0.68;;
51124;SDS011;37163;55.556;39.108;2023-03-01T15:50:43;2.28;;;0.65;;
51124;SDS011;37163;55.556;39.108;2023-03-01T15:53:11;1.73;;;0.70;;
51124;SDS011;37163;55.556;39.108;2023-03-01T15:55:40;0.40;;;0.40;;
51124;SDS011;37163;55.556;39.108;2023-03-01T15:58:10;1.38;;;0.73;;
51124;SDS011;37163;55.556;39.108;2023-03-01T16:00:39;2.88;;;0.75;;
51124;SDS011;37163;55.556;39.108;2023-03-01T16:03:06;1.25;;;0.45;;
51124;SDS011;37163;55.556;39.108;2023-03-01T16:05:35;1.58;;;0.82;;
51124;SDS011;37163;55.556;39.108;2023-03-01T16:08:02;3.90;;;1.10;;
51124;SDS011;37163;55.556;39.108;2023-03-01T16:10:29;2.60;;;1.38;;
51124;SDS011;37163;55.556;39.108;2023-03-01T16:12:57;2.03;;;0.80;;
51124;SDS011;37163;55.556;39.108;2023-03-01T16:15:24;4.70;;;2.03;;
51124;SDS011;37163;55.556;39.108;2023-03-01T16:17:55;2.60;;;1.25;;
51124;SDS011;37163;55.556;39.108;2023-03-01T16:20:23;6.15;;;1.63;;
51124;SDS011;37163;55.556;39.108;2023-03-01T16:22:50;3.83;;;1.60;;
51124;SDS011;37163;55.556;39.108;2023-03-01T16:25:18;3.50;;;1.33;;
51124;SDS011;37163;55.556;39.108;2023-03-01T16:27:45;4.63;;;1.30;;
51124;SDS011;37163;55.556;39.108;2023-03-01T16:30:13;3.47;;;1.55;;
51124;SDS011;37163;55.556;39.108;2023-03-01T16:32:43;4.97;;;1.30;;
51124;SDS011;37163;55.556;39.108;2023-03-01T16:35:11;2.47;;;1.13;;
51124;SDS011;37163;55.556;39.108;2023-03-01T16:37:39;2.78;;;1.48;;
51124;SDS011;37163;55.556;39.108;2023-03-01T16:40:07;3.95;;;1.50;;
51124;SDS011;37163;55.556;39.108;2023-03-01T16:42:48;4.05;;;1.20;;
51124;SDS011;37163;55.556;39.108;2023-03-01T16:45:15;3.70;;;1.67;;
51124;SDS011;37163;55.556;39.108;2023-03-01T16:47:42;2.35;;;1.17;;
51124;SDS011;37163;55.556;39.108;2023-03-01T16:50:09;2.80;;;0.93;;